sensor_id;sensor_type;location;lat;lon;timestamp;temperature;humidity
52127;DHT22;38120;53.176;6.614;2022-07-29T00:01:48;14.30;99.90
52127;DHT22;38120;53.176;6.614;2022-07-29T00:04:14;14.30;99.90
52127;DHT22;38120;53.176;6.614;2022-07-29T00:06:40;14.40;99.90
52127;DHT22;38120;53.176;6.614;2022-07-29T00:09:06;14.40;99.90
52127;DHT22;38120;53.176;6.614;2022-07-29T00:11:32;14.50;99.90
52127;DHT22;38120;53.176;6.614;2022-07-29T00:13:58;14.50;99.90
52127;DHT22;38120;53.176;6.614;2022-07-29T00:16:23;14.50;99.90
52127;DHT22;38120;53.176;6.614;2022-07-29T00:18:49;14.40;99.90
52127;DHT22;38120;53.176;6.614;2022-07-29T00:21:14;14.40;99.90
52127;DHT22;38120;53.176;6.614;2022-07-29T00:23:40;14.50;99.90
52127;DHT22;38120;53.176;6.614;2022-07-29T00:26:06;14.50;99.90
52127;DHT22;38120;53.176;6.614;2022-07-29T00:28:32;14.50;99.90
52127;DHT22;38120;53.176;6.614;2022-07-29T00:30:57;14.40;99.90
52127;DHT22;38120;53.176;6.614;2022-07-29T00:33:23;14.50;99.90
52127;DHT22;38120;53.176;6.614;2022-07-29T00:35:49;14.50;99.90
52127;DHT22;38120;53.176;6.614;2022-07-29T00:38:18;14.50;99.90
52127;DHT22;38120;53.176;6.614;2022-07-29T00:40:44;14.50;99.90
52127;DHT22;38120;53.176;6.614;2022-07-29T00:43:11;14.50;99.90
52127;DHT22;38120;53.176;6.614;2022-07-29T00:45:37;14.50;99.90
52127;DHT22;38120;53.176;6.614;2022-07-29T00:48:03;14.50;99.90
52127;DHT22;38120;53.176;6.614;2022-07-29T00:50:31;14.50;99.90
52127;DHT22;38120;53.176;6.614;2022-07-29T00:52:58;14.50;99.90
52127;DHT22;38120;53.176;6.614;2022-07-29T00:55:24;14.50;99.90
52127;DHT22;38120;53.176;6.614;2022-07-29T00:57:50;14.50;99.90
52127;DHT22;38120;53.176;6.614;2022-07-29T01:00:24;14.50;99.90
52127;DHT22;38120;53.176;6.614;2022-07-29T01:02:50;14.60;99.90
52127;DHT22;38120;53.176;6.614;2022-07-29T01:05:27;14.60;99.90
52127;DHT22;38120;53.176;6.614;2022-07-29T01:07:53;14.60;99.90
52127;DHT22;38120;53.176;6.614;2022-07-29T01:10:20;14.50;99.90
52127;DHT22;38120;53.176;6.614;2022-07-29T01:12:49;14.50;99.90
52127;DHT22;38120;53.176;6.614;2022-07-29T01:15:15;14.50;99.90
52127;DHT22;38120;53.176;6.614;2022-07-29T01:23:34;14.50;99.90
52127;DHT22;38120;53.176;6.614;2022-07-29T01:31:54;14.50;99.90
52127;DHT22;38120;53.176;6.614;2022-07-29T01:34:23;14.50;99.90
52127;DHT22;38120;53.176;6.614;2022-07-29T01:37:10;14.40;99.90
52127;DHT22;38120;53.176;6.614;2022-07-29T01:39:38;14.40;99.90
52127;DHT22;38120;53.176;6.614;2022-07-29T01:44:37;14.30;99.90
52127;DHT22;38120;53.176;6.614;2022-07-29T01:47:11;14.40;99.90
52127;DHT22;38120;53.176;6.614;2022-07-29T01:49:43;14.40;99.90
52127;DHT22;38120;53.176;6.614;2022-07-29T01:52:25;14.30;99.90
52127;DHT22;38120;53.176;6.614;2022-07-29T01:54:55;14.30;99.90
52127;DHT22;38120;53.176;6.614;2022-07-29T01:57:26;14.30;99.90
52127;DHT22;38120;53.176;6.614;2022-07-29T01:59:53;14.30;99.90
52127;DHT22;38120;53.176;6.614;2022-07-29T02:02:21;14.30;99.90
52127;DHT22;38120;53.176;6.614;2022-07-29T02:04:49;14.30;99.90
52127;DHT22;38120;53.176;6.614;2022-07-29T02:07:21;14.40;99.90
52127;DHT22;38120;53.176;6.614;2022-07-29T02:09:49;14.30;99.90
52127;DHT22;38120;53.176;6.614;2022-07-29T02:12:18;14.30;99.90
52127;DHT22;38120;53.176;6.614;2022-07-29T02:14:50;14.30;99.90
52127;DHT22;38120;53.176;6.614;2022-07-29T02:17:28;14.40;99.90
52127;DHT22;38120;53.176;6.614;2022-07-29T02:20:00;14.40;99.90
52127;DHT22;38120;53.176;6.614;2022-07-29T02:22:28;14.50;99.90
52127;DHT22;38120;53.176;6.614;2022-07-29T02:24:55;14.50;99.90
52127;DHT22;38120;53.176;6.614;2022-07-29T02:27:22;14.40;99.90
52127;DHT22;38120;53.176;6.614;2022-07-29T02:29:49;14.40;99.90
52127;DHT22;38120;53.176;6.614;2022-07-29T02:32:16;14.50;99.90
52127;DHT22;38120;53.176;6.614;2022-07-29T02:34:43;14.50;99.90
52127;DHT22;38120;53.176;6.614;2022-07-29T02:37:11;14.50;99.90
52127;DHT22;38120;53.176;6.614;2022-07-29T02:39:41;14.60;99.90
52127;DHT22;38120;53.176;6.614;2022-07-29T02:42:11;14.60;99.90
52127;DHT22;38120;53.176;6.614;2022-07-29T02:44:38;14.60;99.90
52127;DHT22;38120;53.176;6.614;2022-07-29T02:52:04;14.60;99.90
52127;DHT22;38120;53.176;6.614;2022-07-29T02:54:41;14.60;99.90
52127;DHT22;38120;53.176;6.614;2022-07-29T02:57:38;14.60;99.90
52127;DHT22;38120;53.176;6.614;2022-07-29T03:00:07;14.60;99.90
52127;DHT22;38120;53.176;6.614;2022-07-29T03:02:36;14.60;99.90
52127;DHT22;38120;53.176;6.614;2022-07-29T03:05:04;14.50;99.90
52127;DHT22;38120;53.176;6.614;2022-07-29T03:07:33;14.60;99.90
52127;DHT22;38120;53.176;6.614;2022-07-29T03:10:00;14.60;99.90
52127;DHT22;38120;53.176;6.614;2022-07-29T03:12:27;14.60;99.90
52127;DHT22;38120;53.176;6.614;2022-07-29T03:14:54;14.60;99.90
52127;DHT22;38120;53.176;6.614;2022-07-29T03:17:21;14.60;99.90
52127;DHT22;38120;53.176;6.614;2022-07-29T03:19:47;14.60;99.90
52127;DHT22;38120;53.176;6.614;2022-07-29T03:22:14;14.60;99.90
52127;DHT22;38120;53.176;6.614;2022-07-29T03:24:39;14.60;99.90
52127;DHT22;38120;53.176;6.614;2022-07-29T03:27:05;14.60;99.90
52127;DHT22;38120;53.176;6.614;2022-07-29T03:29:32;14.60;99.90
52127;DHT22;38120;53.176;6.614;2022-07-29T03:31:57;14.60;99.90
52127;DHT22;38120;53.176;6.614;2022-07-29T03:34:23;14.60;99.90
52127;DHT22;38120;53.176;6.614;2022-07-29T03:36:49;14.60;99.90
52127;DHT22;38120;53.176;6.614;2022-07-29T03:39:17;14.60;99.90
52127;DHT22;38120;53.176;6.614;2022-07-29T03:41:44;14.50;99.90
52127;DHT22;38120;53.176;6.614;2022-07-29T03:44:12;14.50;99.90
52127;DHT22;38120;53.176;6.614;2022-07-29T03:46:39;14.50;99.90
52127;DHT22;38120;53.176;6.614;2022-07-29T03:49:08;14.50;99.90
52127;DHT22;38120;53.176;6.614;2022-07-29T03:51:34;14.60;99.90
52127;DHT22;38120;53.176;6.614;2022-07-29T03:54:01;14.50;99.90
52127;DHT22;38120;53.176;6.614;2022-07-29T03:56:28;14.50;99.90
52127;DHT22;38120;53.176;6.614;2022-07-29T03:58:54;14.50;99.90
52127;DHT22;38120;53.176;6.614;2022-07-29T04:01:20;14.50;99.90
52127;DHT22;38120;53.176;6.614;2022-07-29T04:03:46;14.50;99.90
52127;DHT22;38120;53.176;6.614;2022-07-29T04:06:12;14.50;99.90
52127;DHT22;38120;53.176;6.614;2022-07-29T04:08:38;14.50;99.90
52127;DHT22;38120;53.176;6.614;2022-07-29T04:11:04;14.60;99.90
52127;DHT22;38120;53.176;6.614;2022-07-29T04:13:31;14.50;99.90
52127;DHT22;38120;53.176;6.614;2022-07-29T04:15:57;14.60;99.90
52127;DHT22;38120;53.176;6.614;2022-07-29T04:18:23;14.50;99.90
52127;DHT22;38120;53.176;6.614;2022-07-29T04:20:49;14.60;99.90
52127;DHT22;38120;53.176;6.614;2022-07-29T04:23:15;14.60;99.90
52127;DHT22;38120;53.176;6.614;2022-07-29T04:25:41;14.60;99.90
52127;DHT22;38120;53.176;6.614;2022-07-29T04:28:08;14.60;99.90
52127;DHT22;38120;53.176;6.614;2022-07-29T04:30:34;14.60;99.90
52127;DHT22;38120;53.176;6.614;2022-07-29T04:33:05;14.60;99.90
52127;DHT22;38120;53.176;6.614;2022-07-29T04:35:34;14.60;99.90
52127;DHT22;38120;53.176;6.614;2022-07-29T04:38:00;14.60;99.90
52127;DHT22;38120;53.176;6.614;2022-07-29T04:40:26;14.80;99.90
52127;DHT22;38120;53.176;6.614;2022-07-29T04:42:51;14.70;99.90
52127;DHT22;38120;53.176;6.614;2022-07-29T04:45:17;14.70;99.90
52127;DHT22;38120;53.176;6.614;2022-07-29T04:47:43;14.70;99.90
52127;DHT22;38120;53.176;6.614;2022-07-29T04:50:09;14.70;99.90
52127;DHT22;38120;53.176;6.614;2022-07-29T04:52:36;14.70;99.90
52127;DHT22;38120;53.176;6.614;2022-07-29T04:55:02;14.70;99.90
52127;DHT22;38120;53.176;6.614;2022-07-29T04:57:28;14.70;99.90
52127;DHT22;38120;53.176;6.614;2022-07-29T04:59:54;14.70;99.90
52127;DHT22;38120;53.176;6.614;2022-07-29T05:02:19;14.80;99.90
52127;DHT22;38120;53.176;6.614;2022-07-29T05:04:45;14.80;99.90
52127;DHT22;38120;53.176;6.614;2022-07-29T05:07:11;14.80;99.90
52127;DHT22;38120;53.176;6.614;2022-07-29T05:09:37;14.80;99.90
52127;DHT22;38120;53.176;6.614;2022-07-29T05:12:02;14.80;99.90
52127;DHT22;38120;53.176;6.614;2022-07-29T05:14:28;14.80;99.90
52127;DHT22;38120;53.176;6.614;2022-07-29T05:16:53;14.80;99.90
52127;DHT22;38120;53.176;6.614;2022-07-29T05:19:22;14.90;99.90
52127;DHT22;38120;53.176;6.614;2022-07-29T05:21:49;14.90;99.90
52127;DHT22;38120;53.176;6.614;2022-07-29T05:24:15;15.00;99.90
52127;DHT22;38120;53.176;6.614;2022-07-29T05:26:40;14.90;99.90
52127;DHT22;38120;53.176;6.614;2022-07-29T05:29:06;15.00;99.90
52127;DHT22;38120;53.176;6.614;2022-07-29T05:31:32;15.00;99.90
52127;DHT22;38120;53.176;6.614;2022-07-29T05:33:59;15.10;99.90
52127;DHT22;38120;53.176;6.614;2022-07-29T05:36:25;15.10;99.90
52127;DHT22;38120;53.176;6.614;2022-07-29T05:38:50;15.10;99.90
52127;DHT22;38120;53.176;6.614;2022-07-29T05:41:18;15.20;99.90
52127;DHT22;38120;53.176;6.614;2022-07-29T05:43:43;16.50;99.90
52127;DHT22;38120;53.176;6.614;2022-07-29T05:46:09;15.20;99.90
52127;DHT22;38120;53.176;6.614;2022-07-29T05:48:35;15.30;99.90
52127;DHT22;38120;53.176;6.614;2022-07-29T05:51:01;15.30;99.90
52127;DHT22;38120;53.176;6.614;2022-07-29T05:53:27;15.40;99.90
52127;DHT22;38120;53.176;6.614;2022-07-29T05:55:53;15.40;99.90
52127;DHT22;38120;53.176;6.614;2022-07-29T05:58:19;15.40;99.90
52127;DHT22;38120;53.176;6.614;2022-07-29T06:00:45;15.50;99.90
52127;DHT22;38120;53.176;6.614;2022-07-29T06:03:11;15.50;99.90
52127;DHT22;38120;53.176;6.614;2022-07-29T06:05:37;15.60;99.90
52127;DHT22;38120;53.176;6.614;2022-07-29T06:08:02;15.50;99.90
52127;DHT22;38120;53.176;6.614;2022-07-29T06:10:31;15.60;99.90
52127;DHT22;38120;53.176;6.614;2022-07-29T06:12:56;15.60;99.90
52127;DHT22;38120;53.176;6.614;2022-07-29T06:15:22;15.80;99.90
52127;DHT22;38120;53.176;6.614;2022-07-29T06:17:47;15.70;99.90
52127;DHT22;38120;53.176;6.614;2022-07-29T06:20:13;15.70;99.90
52127;DHT22;38120;53.176;6.614;2022-07-29T06:22:39;15.80;99.90
52127;DHT22;38120;53.176;6.614;2022-07-29T06:25:05;15.90;99.90
52127;DHT22;38120;53.176;6.614;2022-07-29T06:27:31;15.90;99.90
52127;DHT22;38120;53.176;6.614;2022-07-29T06:29:57;16.00;99.90
52127;DHT22;38120;53.176;6.614;2022-07-29T06:32:22;16.00;99.90
52127;DHT22;38120;53.176;6.614;2022-07-29T06:34:48;16.10;99.90
52127;DHT22;38120;53.176;6.614;2022-07-29T06:37:14;16.10;99.90
52127;DHT22;38120;53.176;6.614;2022-07-29T06:39:39;16.20;99.90
52127;DHT22;38120;53.176;6.614;2022-07-29T06:42:05;16.10;99.90
52127;DHT22;38120;53.176;6.614;2022-07-29T06:44:32;16.10;99.90
52127;DHT22;38120;53.176;6.614;2022-07-29T06:47:02;16.20;99.90
52127;DHT22;38120;53.176;6.614;2022-07-29T06:49:28;16.20;99.90
52127;DHT22;38120;53.176;6.614;2022-07-29T06:51:54;16.30;99.90
52127;DHT22;38120;53.176;6.614;2022-07-29T06:54:20;16.30;99.90
52127;DHT22;38120;53.176;6.614;2022-07-29T06:56:47;16.40;99.90
52127;DHT22;38120;53.176;6.614;2022-07-29T06:59:13;16.60;99.90
52127;DHT22;38120;53.176;6.614;2022-07-29T07:01:41;16.70;99.90
52127;DHT22;38120;53.176;6.614;2022-07-29T07:04:08;16.70;99.90
52127;DHT22;38120;53.176;6.614;2022-07-29T07:06:37;16.70;99.90
52127;DHT22;38120;53.176;6.614;2022-07-29T07:09:03;16.80;99.90
52127;DHT22;38120;53.176;6.614;2022-07-29T07:11:29;16.70;99.90
52127;DHT22;38120;53.176;6.614;2022-07-29T07:13:55;16.80;99.90
52127;DHT22;38120;53.176;6.614;2022-07-29T07:16:20;16.80;99.90
52127;DHT22;38120;53.176;6.614;2022-07-29T07:18:46;16.80;99.90
52127;DHT22;38120;53.176;6.614;2022-07-29T07:21:12;16.80;99.90
52127;DHT22;38120;53.176;6.614;2022-07-29T07:23:37;16.80;99.90
52127;DHT22;38120;53.176;6.614;2022-07-29T07:26:03;16.80;99.90
52127;DHT22;38120;53.176;6.614;2022-07-29T07:28:31;16.90;99.90
52127;DHT22;38120;53.176;6.614;2022-07-29T07:30:56;16.90;99.90
52127;DHT22;38120;53.176;6.614;2022-07-29T07:33:22;17.00;99.90
52127;DHT22;38120;53.176;6.614;2022-07-29T07:35:48;17.00;99.90
52127;DHT22;38120;53.176;6.614;2022-07-29T07:38:14;17.00;99.90
52127;DHT22;38120;53.176;6.614;2022-07-29T07:40:40;17.10;99.90
52127;DHT22;38120;53.176;6.614;2022-07-29T07:43:06;17.10;99.90
52127;DHT22;38120;53.176;6.614;2022-07-29T07:45:31;17.10;99.90
52127;DHT22;38120;53.176;6.614;2022-07-29T07:48:03;17.20;99.90
52127;DHT22;38120;53.176;6.614;2022-07-29T07:50:28;17.20;99.90
52127;DHT22;38120;53.176;6.614;2022-07-29T07:52:55;17.20;99.90
52127;DHT22;38120;53.176;6.614;2022-07-29T07:55:25;17.20;99.90
52127;DHT22;38120;53.176;6.614;2022-07-29T07:57:51;17.20;99.90
52127;DHT22;38120;53.176;6.614;2022-07-29T08:00:17;17.20;99.90
52127;DHT22;38120;53.176;6.614;2022-07-29T08:02:42;17.30;99.90
52127;DHT22;38120;53.176;6.614;2022-07-29T08:05:11;17.30;99.90
52127;DHT22;38120;53.176;6.614;2022-07-29T08:07:38;17.40;99.90
52127;DHT22;38120;53.176;6.614;2022-07-29T08:10:04;17.30;99.90
52127;DHT22;38120;53.176;6.614;2022-07-29T08:12:30;17.40;99.90
52127;DHT22;38120;53.176;6.614;2022-07-29T08:14:56;17.40;99.90
52127;DHT22;38120;53.176;6.614;2022-07-29T08:17:21;17.40;99.90
52127;DHT22;38120;53.176;6.614;2022-07-29T08:19:47;17.50;99.90
52127;DHT22;38120;53.176;6.614;2022-07-29T08:22:14;17.50;99.90
52127;DHT22;38120;53.176;6.614;2022-07-29T08:24:39;17.50;99.90
52127;DHT22;38120;53.176;6.614;2022-07-29T08:27:08;17.60;99.90
52127;DHT22;38120;53.176;6.614;2022-07-29T08:29:34;17.70;99.90
52127;DHT22;38120;53.176;6.614;2022-07-29T08:32:00;17.80;99.90
52127;DHT22;38120;53.176;6.614;2022-07-29T08:34:25;17.90;99.90
52127;DHT22;38120;53.176;6.614;2022-07-29T08:36:51;17.90;99.90
52127;DHT22;38120;53.176;6.614;2022-07-29T08:39:17;17.80;99.90
52127;DHT22;38120;53.176;6.614;2022-07-29T08:41:43;17.80;99.90
52127;DHT22;38120;53.176;6.614;2022-07-29T08:44:09;17.90;99.90
52127;DHT22;38120;53.176;6.614;2022-07-29T08:46:37;17.90;99.90
52127;DHT22;38120;53.176;6.614;2022-07-29T08:49:04;17.90;99.90
52127;DHT22;38120;53.176;6.614;2022-07-29T08:51:30;18.00;99.90
52127;DHT22;38120;53.176;6.614;2022-07-29T08:53:57;18.00;99.90
52127;DHT22;38120;53.176;6.614;2022-07-29T08:56:24;18.00;99.90
52127;DHT22;38120;53.176;6.614;2022-07-29T08:58:50;18.00;99.90
52127;DHT22;38120;53.176;6.614;2022-07-29T09:01:17;18.10;99.90
52127;DHT22;38120;53.176;6.614;2022-07-29T09:03:46;18.80;99.90
52127;DHT22;38120;53.176;6.614;2022-07-29T09:06:18;18.30;99.90
52127;DHT22;38120;53.176;6.614;2022-07-29T09:08:45;18.30;99.90
52127;DHT22;38120;53.176;6.614;2022-07-29T09:11:11;18.40;99.90
52127;DHT22;38120;53.176;6.614;2022-07-29T09:13:37;18.40;99.90
52127;DHT22;38120;53.176;6.614;2022-07-29T09:16:03;18.30;99.90
52127;DHT22;38120;53.176;6.614;2022-07-29T09:18:45;18.30;99.90
52127;DHT22;38120;53.176;6.614;2022-07-29T09:21:13;18.30;99.90
52127;DHT22;38120;53.176;6.614;2022-07-29T09:24:07;18.30;99.90
52127;DHT22;38120;53.176;6.614;2022-07-29T09:26:35;18.40;99.90
52127;DHT22;38120;53.176;6.614;2022-07-29T09:29:08;18.30;99.90
52127;DHT22;38120;53.176;6.614;2022-07-29T09:31:37;18.40;99.90
52127;DHT22;38120;53.176;6.614;2022-07-29T09:34:04;18.30;99.90
52127;DHT22;38120;53.176;6.614;2022-07-29T09:36:30;18.30;99.90
52127;DHT22;38120;53.176;6.614;2022-07-29T09:39:03;18.30;99.90
52127;DHT22;38120;53.176;6.614;2022-07-29T09:41:29;18.40;99.90
52127;DHT22;38120;53.176;6.614;2022-07-29T09:43:57;18.30;99.90
52127;DHT22;38120;53.176;6.614;2022-07-29T09:46:24;18.40;99.90
52127;DHT22;38120;53.176;6.614;2022-07-29T09:49:07;18.40;99.90
52127;DHT22;38120;53.176;6.614;2022-07-29T09:51:34;18.50;99.90
52127;DHT22;38120;53.176;6.614;2022-07-29T09:54:00;18.50;99.90
52127;DHT22;38120;53.176;6.614;2022-07-29T09:56:39;18.50;99.90
52127;DHT22;38120;53.176;6.614;2022-07-29T09:59:06;18.50;99.90
52127;DHT22;38120;53.176;6.614;2022-07-29T10:01:32;18.60;99.90
52127;DHT22;38120;53.176;6.614;2022-07-29T10:03:58;18.60;99.90
52127;DHT22;38120;53.176;6.614;2022-07-29T10:06:23;18.60;99.90
52127;DHT22;38120;53.176;6.614;2022-07-29T10:08:49;18.50;99.90
52127;DHT22;38120;53.176;6.614;2022-07-29T10:11:17;18.60;99.90
52127;DHT22;38120;53.176;6.614;2022-07-29T10:13:44;18.60;99.90
52127;DHT22;38120;53.176;6.614;2022-07-29T10:16:11;18.70;99.90
52127;DHT22;38120;53.176;6.614;2022-07-29T10:18:38;18.80;99.90
52127;DHT22;38120;53.176;6.614;2022-07-29T10:21:05;18.80;99.90
52127;DHT22;38120;53.176;6.614;2022-07-29T10:23:31;18.80;99.90
52127;DHT22;38120;53.176;6.614;2022-07-29T10:25:57;18.80;99.90
52127;DHT22;38120;53.176;6.614;2022-07-29T10:28:23;18.80;99.90
52127;DHT22;38120;53.176;6.614;2022-07-29T10:30:50;18.90;99.90
52127;DHT22;38120;53.176;6.614;2022-07-29T10:36:40;18.90;99.90
52127;DHT22;38120;53.176;6.614;2022-07-29T10:39:19;18.90;99.90
52127;DHT22;38120;53.176;6.614;2022-07-29T10:42:02;18.90;99.90
52127;DHT22;38120;53.176;6.614;2022-07-29T10:44:32;19.00;99.90
52127;DHT22;38120;53.176;6.614;2022-07-29T10:46:58;19.10;99.90
52127;DHT22;38120;53.176;6.614;2022-07-29T10:49:28;19.20;99.90
52127;DHT22;38120;53.176;6.614;2022-07-29T10:52:07;19.30;99.90
52127;DHT22;38120;53.176;6.614;2022-07-29T10:57:26;19.30;99.90
52127;DHT22;38120;53.176;6.614;2022-07-29T11:07:31;19.40;99.90
52127;DHT22;38120;53.176;6.614;2022-07-29T11:15:05;19.40;99.90
52127;DHT22;38120;53.176;6.614;2022-07-29T11:18:08;19.50;99.90
52127;DHT22;38120;53.176;6.614;2022-07-29T11:20:39;19.60;99.90
52127;DHT22;38120;53.176;6.614;2022-07-29T11:23:21;19.70;99.90
52127;DHT22;38120;53.176;6.614;2022-07-29T11:28:49;20.00;99.90
52127;DHT22;38120;53.176;6.614;2022-07-29T11:31:38;20.10;99.90
52127;DHT22;38120;53.176;6.614;2022-07-29T11:34:24;20.10;99.90
52127;DHT22;38120;53.176;6.614;2022-07-29T11:44:57;21.00;99.90
52127;DHT22;38120;53.176;6.614;2022-07-29T11:47:25;21.20;99.90
52127;DHT22;38120;53.176;6.614;2022-07-29T11:49:52;21.20;99.90
52127;DHT22;38120;53.176;6.614;2022-07-29T11:52:19;21.30;99.90
52127;DHT22;38120;53.176;6.614;2022-07-29T11:54:47;21.60;99.90
52127;DHT22;38120;53.176;6.614;2022-07-29T11:57:16;21.50;99.90
52127;DHT22;38120;53.176;6.614;2022-07-29T11:59:43;21.50;99.90
52127;DHT22;38120;53.176;6.614;2022-07-29T12:02:09;21.50;99.90
52127;DHT22;38120;53.176;6.614;2022-07-29T12:05:08;21.60;99.90
52127;DHT22;38120;53.176;6.614;2022-07-29T12:07:35;21.50;99.90
52127;DHT22;38120;53.176;6.614;2022-07-29T12:10:03;21.60;99.90
52127;DHT22;38120;53.176;6.614;2022-07-29T12:12:29;21.70;99.90
52127;DHT22;38120;53.176;6.614;2022-07-29T12:14:55;21.70;99.90
52127;DHT22;38120;53.176;6.614;2022-07-29T12:17:31;21.70;99.90
52127;DHT22;38120;53.176;6.614;2022-07-29T12:19:58;21.90;99.90
52127;DHT22;38120;53.176;6.614;2022-07-29T12:22:43;22.00;99.90
52127;DHT22;38120;53.176;6.614;2022-07-29T12:25:15;22.10;99.90
52127;DHT22;38120;53.176;6.614;2022-07-29T12:27:42;22.20;99.90
52127;DHT22;38120;53.176;6.614;2022-07-29T12:30:15;22.10;99.90
52127;DHT22;38120;53.176;6.614;2022-07-29T12:32:44;22.20;99.90
52127;DHT22;38120;53.176;6.614;2022-07-29T12:35:13;22.20;99.90
52127;DHT22;38120;53.176;6.614;2022-07-29T12:37:41;22.10;1.00
52127;DHT22;38120;53.176;6.614;2022-07-29T12:40:09;22.10;1.00
52127;DHT22;38120;53.176;6.614;2022-07-29T12:42:35;22.10;1.00
52127;DHT22;38120;53.176;6.614;2022-07-29T12:45:01;22.20;1.00
52127;DHT22;38120;53.176;6.614;2022-07-29T12:47:28;22.30;1.00
52127;DHT22;38120;53.176;6.614;2022-07-29T12:50:12;22.40;99.90
52127;DHT22;38120;53.176;6.614;2022-07-29T12:52:40;22.50;1.00
52127;DHT22;38120;53.176;6.614;2022-07-29T12:55:06;22.40;1.00
52127;DHT22;38120;53.176;6.614;2022-07-29T12:57:32;22.60;99.90
52127;DHT22;38120;53.176;6.614;2022-07-29T13:00:11;22.60;99.90
52127;DHT22;38120;53.176;6.614;2022-07-29T13:02:39;22.80;99.90
52127;DHT22;38120;53.176;6.614;2022-07-29T13:05:07;23.30;71.10
52127;DHT22;38120;53.176;6.614;2022-07-29T13:07:35;23.50;1.00
52127;DHT22;38120;53.176;6.614;2022-07-29T13:10:19;23.50;58.00
52127;DHT22;38120;53.176;6.614;2022-07-29T13:13:11;23.60;1.00
52127;DHT22;38120;53.176;6.614;2022-07-29T13:15:38;23.90;1.00
52127;DHT22;38120;53.176;6.614;2022-07-29T13:18:05;24.20;1.00
52127;DHT22;38120;53.176;6.614;2022-07-29T13:20:50;24.10;99.90
52127;DHT22;38120;53.176;6.614;2022-07-29T13:23:16;24.30;1.00
52127;DHT22;38120;53.176;6.614;2022-07-29T13:25:42;24.30;1.00
52127;DHT22;38120;53.176;6.614;2022-07-29T13:28:08;24.30;1.00
52127;DHT22;38120;53.176;6.614;2022-07-29T13:30:33;24.30;99.90
52127;DHT22;38120;53.176;6.614;2022-07-29T13:32:59;24.30;1.00
52127;DHT22;38120;53.176;6.614;2022-07-29T13:35:25;24.70;99.90
52127;DHT22;38120;53.176;6.614;2022-07-29T13:37:51;24.60;99.90
52127;DHT22;38120;53.176;6.614;2022-07-29T13:40:17;24.60;99.90
52127;DHT22;38120;53.176;6.614;2022-07-29T13:42:43;24.80;99.90
52127;DHT22;38120;53.176;6.614;2022-07-29T13:45:09;24.00;99.90
52127;DHT22;38120;53.176;6.614;2022-07-29T13:47:36;25.10;99.90
52127;DHT22;38120;53.176;6.614;2022-07-29T13:50:08;25.20;99.90
52127;DHT22;38120;53.176;6.614;2022-07-29T13:52:36;25.20;99.90
52127;DHT22;38120;53.176;6.614;2022-07-29T13:55:02;25.30;99.90
52127;DHT22;38120;53.176;6.614;2022-07-29T13:57:29;25.40;99.90
52127;DHT22;38120;53.176;6.614;2022-07-29T13:59:55;25.60;99.90
52127;DHT22;38120;53.176;6.614;2022-07-29T14:02:27;25.60;99.90
52127;DHT22;38120;53.176;6.614;2022-07-29T14:04:53;25.70;99.90
52127;DHT22;38120;53.176;6.614;2022-07-29T14:07:19;25.60;99.90
52127;DHT22;38120;53.176;6.614;2022-07-29T14:09:45;25.60;99.90
52127;DHT22;38120;53.176;6.614;2022-07-29T14:12:11;25.30;99.90
52127;DHT22;38120;53.176;6.614;2022-07-29T14:14:37;25.60;99.90
52127;DHT22;38120;53.176;6.614;2022-07-29T14:17:02;25.60;99.90
52127;DHT22;38120;53.176;6.614;2022-07-29T14:19:28;25.90;1.00
52127;DHT22;38120;53.176;6.614;2022-07-29T14:21:54;25.90;1.00
52127;DHT22;38120;53.176;6.614;2022-07-29T14:24:19;26.00;99.90
52127;DHT22;38120;53.176;6.614;2022-07-29T14:26:45;26.10;99.90
52127;DHT22;38120;53.176;6.614;2022-07-29T14:29:11;26.20;99.90
52127;DHT22;38120;53.176;6.614;2022-07-29T14:31:37;26.10;99.90
52127;DHT22;38120;53.176;6.614;2022-07-29T14:34:03;26.40;99.90
52127;DHT22;38120;53.176;6.614;2022-07-29T14:36:28;26.00;1.00
52127;DHT22;38120;53.176;6.614;2022-07-29T14:38:54;26.00;99.90
52127;DHT22;38120;53.176;6.614;2022-07-29T14:41:20;26.20;99.90
52127;DHT22;38120;53.176;6.614;2022-07-29T14:43:47;26.00;99.90
52127;DHT22;38120;53.176;6.614;2022-07-29T14:46:12;25.90;99.90
52127;DHT22;38120;53.176;6.614;2022-07-29T14:48:38;26.10;99.90
52127;DHT22;38120;53.176;6.614;2022-07-29T14:51:03;26.10;99.90
52127;DHT22;38120;53.176;6.614;2022-07-29T14:53:32;26.10;99.90
52127;DHT22;38120;53.176;6.614;2022-07-29T14:55:58;26.00;99.90
52127;DHT22;38120;53.176;6.614;2022-07-29T14:58:23;26.00;99.90
52127;DHT22;38120;53.176;6.614;2022-07-29T15:00:49;25.90;99.90
52127;DHT22;38120;53.176;6.614;2022-07-29T15:03:15;25.80;99.90
52127;DHT22;38120;53.176;6.614;2022-07-29T15:05:40;26.00;99.90
52127;DHT22;38120;53.176;6.614;2022-07-29T15:08:06;26.00;99.90
52127;DHT22;38120;53.176;6.614;2022-07-29T15:10:33;25.80;99.90
52127;DHT22;38120;53.176;6.614;2022-07-29T15:12:59;25.90;99.90
52127;DHT22;38120;53.176;6.614;2022-07-29T15:15:25;25.90;99.90
52127;DHT22;38120;53.176;6.614;2022-07-29T15:17:51;25.90;99.90
52127;DHT22;38120;53.176;6.614;2022-07-29T15:20:17;26.00;99.90
52127;DHT22;38120;53.176;6.614;2022-07-29T15:22:42;25.90;99.90
52127;DHT22;38120;53.176;6.614;2022-07-29T15:25:08;25.70;99.90
52127;DHT22;38120;53.176;6.614;2022-07-29T15:27:34;25.80;99.90
52127;DHT22;38120;53.176;6.614;2022-07-29T15:30:00;25.80;99.90
52127;DHT22;38120;53.176;6.614;2022-07-29T15:32:26;25.90;99.90
52127;DHT22;38120;53.176;6.614;2022-07-29T15:34:51;25.80;99.90
52127;DHT22;38120;53.176;6.614;2022-07-29T15:37:17;26.00;99.90
52127;DHT22;38120;53.176;6.614;2022-07-29T15:39:43;25.80;99.90
52127;DHT22;38120;53.176;6.614;2022-07-29T15:42:08;25.80;99.90
52127;DHT22;38120;53.176;6.614;2022-07-29T15:44:34;25.70;99.90
52127;DHT22;38120;53.176;6.614;2022-07-29T15:46:59;25.80;99.90
52127;DHT22;38120;53.176;6.614;2022-07-29T15:49:35;25.60;99.90
52127;DHT22;38120;53.176;6.614;2022-07-29T15:52:04;25.60;99.90
52127;DHT22;38120;53.176;6.614;2022-07-29T15:54:35;25.60;99.90
52127;DHT22;38120;53.176;6.614;2022-07-29T15:57:01;25.60;99.90
52127;DHT22;38120;53.176;6.614;2022-07-29T15:59:27;25.50;99.90
52127;DHT22;38120;53.176;6.614;2022-07-29T16:01:53;25.50;99.90
52127;DHT22;38120;53.176;6.614;2022-07-29T16:04:19;25.40;99.90
52127;DHT22;38120;53.176;6.614;2022-07-29T16:06:45;25.20;99.90
52127;DHT22;38120;53.176;6.614;2022-07-29T16:09:11;25.00;99.90
52127;DHT22;38120;53.176;6.614;2022-07-29T16:11:37;25.00;99.90
52127;DHT22;38120;53.176;6.614;2022-07-29T16:14:03;24.90;99.90
52127;DHT22;38120;53.176;6.614;2022-07-29T16:16:29;24.60;99.90
52127;DHT22;38120;53.176;6.614;2022-07-29T16:18:54;24.50;99.90
52127;DHT22;38120;53.176;6.614;2022-07-29T16:21:20;24.50;99.90
52127;DHT22;38120;53.176;6.614;2022-07-29T16:23:49;24.30;99.90
52127;DHT22;38120;53.176;6.614;2022-07-29T16:26:15;24.20;99.90